FAPP

Polokwane International Airport

Potgietersrus, South Africa
METAR FAPP 230300Z 19006KT CAVOK 13/08 Q1025 NOSIG
Observed Flight Rules
May-23 @ 03:00 UTC (18 minutes ago) Visual Flight Rules
Wind Visibility Clouds
190° at 6 knots 10,000+ meters
  • Clear skies
Temperatures Readings
Current 13°C / 55°F
Dewpoint 8°C / 46°F
Humidity 72%
Altimeter 30.27" Hg
Pressure 1025 hPa
Elevation 1242
METAR FAPP 230300Z 19006KT CAVOK 13/08 Q1025 NOSIG
Observed Flight Rules
May-23 @ 03:00 UTC
(18 minutes ago)
VFR
Wind Visibility
190° at 6 knots 10,000+ meters
Clouds
  • Clear skies
Temperature Dewpoint
13°C / 55°F 8°C / 46°F
Humidity Altimeter Pressure
72% 30.27" Hg 1025 hPa